首页
METAR-TAF:

METAR-TAF

机场 :

Benson, 英格兰

纬度: 51-37N, 经度: 001-05W, 海拔: 63米

当前天气观测

该预报发布于44分钟前的00:50 UTC
风速1节,风向南转南东
温度 4°C
湿度 100%
气压 989 hPa
能见度10公里或以上

METAR: EGUB 140050Z AUTO 16001KT 9999 // BKN026/// BKN032/// 04/04 Q0989

时间: 01:34 (01:34 UTC)

预报

该预报发布于5小时和29分钟前的20:05 UTC
预报有效从13日的 20点(UTC)到 13日的 23点(UTC)
风速14节,风向东转东南
能见度10公里或以上
散云层高于2800英尺
成为
从 13日的 20点(UTC)到 13日的 23点(UTC)
多云层高于2000英尺
几率 40% :
短暂存在
从 13日的 21点(UTC)到 13日的 23点(UTC)
能見度: 5000
多云层高于1200英尺

TAF: EGUB 132005Z 1320/1323 11014KT 9999 SCT028 BECMG 1320/1323 BKN020 PROB40 TEMPO 1321/1323 5000 RA BKN012

超过4000个机场的气象观测和天气预报(METAR&TAF报告)。

可查询的气象台以黄色和红色小点在地图上表示。

将鼠标移到小点上方,可查看气象台名称。

然后点击查看天气观测和预报。

如需切换地图:点击带黑十字的绿色按钮放大地图;点击带横线的绿色按钮缩小地图;或者点击绿色箭头查看邻近地区的地图。


METAR-TAF: